Time;durP1;ratioP1;P1;durP2;ratioP2;P2;SDS_P1;SDS_P2;PMS_P1;PMS_P2;Temp;Humidity;BMP_temperature;BMP_pressure;BME280_temperature;BME280_humidity;BME280_pressure;Samples;Min_cycle;Max_cycle;Signal;HPM_P1;HPM_P2
2023/01/25 00:01:24;;;;;;;30.93;27.93;;;;;;;;;;4932836;28;20534;-85
2023/01/25 00:03:50;;;;;;;31.20;28.17;;;;;;;;;;4931060;29;20440;-86
2023/01/25 00:06:16;;;;;;;30.83;27.85;;;;;;;;;;4934070;28;20423;-86
2023/01/25 00:08:42;;;;;;;31.42;28.42;;;;;;;;;;4953244;28;20425;-85
2023/01/25 00:11:11;;;;;;;32.13;29.05;;;;;;;;;;4932666;28;20430;-85
2023/01/25 00:13:37;;;;;;;31.25;28.15;;;;;;;;;;4954581;28;20432;-86
2023/01/25 00:16:04;;;;;;;31.97;28.83;;;;;;;;;;4948633;28;20411;-85
2023/01/25 00:18:33;;;;;;;31.48;28.38;;;;;;;;;;4956934;28;20414;-86
2023/01/25 00:20:59;;;;;;;32.78;29.58;;;;;;;;;;4957038;28;20472;-85
2023/01/25 00:23:25;;;;;;;32.33;29.25;;;;;;;;;;4956915;28;20445;-86
2023/01/25 00:25:57;;;;;;;32.17;29.08;;;;;;;;;;4941065;28;20453;-85
2023/01/25 00:28:23;;;;;;;33.50;30.30;;;;;;;;;;4955986;28;20431;-85
2023/01/25 00:30:50;;;;;;;28.37;25.30;;;;;;;;;;4957378;28;20452;-86
2023/01/25 00:33:16;;;;;;;26.30;23.20;;;;;;;;;;4957434;28;20230;-85
2023/01/25 00:35:44;;;;;;;26.23;23.40;;;;;;;;;;4956981;28;20252;-86
2023/01/25 00:38:29;;;;;;;27.70;23.20;;;;;;;;;;4957694;28;20181;-85
2023/01/25 00:40:57;;;;;;;28.43;23.67;;;;;;;;;;4960027;28;20186;-85
2023/01/25 00:43:26;;;;;;;26.33;23.33;;;;;;;;;;4961708;28;20210;-85
2023/01/25 00:45:52;;;;;;;27.53;24.07;;;;;;;;;;4960323;28;20221;-85
2023/01/25 00:48:18;;;;;;;27.93;24.87;;;;;;;;;;4960903;28;20277;-86
2023/01/25 00:50:44;;;;;;;29.63;23.70;;;;;;;;;;4951028;29;20250;-85
2023/01/25 00:53:13;;;;;;;31.03;25.43;;;;;;;;;;4944501;28;20211;-86
2023/01/25 00:55:39;;;;;;;32.80;29.45;;;;;;;;;;4960642;28;20493;-85
2023/01/25 00:58:05;;;;;;;29.20;25.47;;;;;;;;;;4961028;28;20281;-85
2023/01/25 01:00:31;;;;;;;27.67;24.67;;;;;;;;;;4945308;28;20210;-86
2023/01/25 01:02:57;;;;;;;29.27;25.27;;;;;;;;;;4961220;28;20187;-85
2023/01/25 01:05:23;;;;;;;29.43;25.70;;;;;;;;;;4960481;28;20218;-86
2023/01/25 01:07:49;;;;;;;29.58;26.23;;;;;;;;;;4961075;28;20425;-85
2023/01/25 01:10:15;;;;;;;28.70;24.97;;;;;;;;;;4945101;28;20233;-86
2023/01/25 01:12:44;;;;;;;33.60;30.20;;;;;;;;;;4960616;28;20473;-85
2023/01/25 01:15:10;;;;;;;35.13;31.70;;;;;;;;;;4960074;28;20425;-86
2023/01/25 01:17:36;;;;;;;29.57;26.37;;;;;;;;;;4960954;28;20248;-86
2023/01/25 01:20:02;;;;;;;30.63;26.60;;;;;;;;;;4945064;28;20183;-86
2023/01/25 01:22:30;;;;;;;29.83;26.30;;;;;;;;;;4960855;28;20426;-87
2023/01/25 01:24:56;;;;;;;29.77;26.03;;;;;;;;;;4960912;28;20187;-86
2023/01/25 01:27:22;;;;;;;30.47;26.07;;;;;;;;;;4944881;28;20190;-85
2023/01/25 01:29:48;;;;;;;29.67;26.27;;;;;;;;;;4960841;28;20187;-85
2023/01/25 01:32:14;;;;;;;28.43;24.67;;;;;;;;;;4960595;28;20301;-85
2023/01/25 01:34:40;;;;;;;30.97;25.67;;;;;;;;;;4960473;28;20234;-85
2023/01/25 01:37:06;;;;;;;30.67;26.37;;;;;;;;;;4960538;28;20183;-85
2023/01/25 01:39:32;;;;;;;30.23;25.07;;;;;;;;;;4960683;28;20185;-85
2023/01/25 01:42:00;;;;;;;32.73;26.30;;;;;;;;;;4960488;28;20182;-85
2023/01/25 01:44:47;;;;;;;30.73;25.30;;;;;;;;;;4941558;29;20187;-85
2023/01/25 01:47:24;;;;;;;29.90;25.50;;;;;;;;;;4941248;29;20178;-86
2023/01/25 01:49:53;;;;;;;33.13;26.57;;;;;;;;;;4942822;28;20214;-85
2023/01/25 01:52:23;;;;;;;31.50;26.57;;;;;;;;;;4966051;28;20293;-86
2023/01/25 01:55:00;;;;;;;30.50;26.20;;;;;;;;;;4953414;28;20187;-86
2023/01/25 01:57:33;;;;;;;32.30;25.93;;;;;;;;;;4957399;28;20187;-86
2023/01/25 02:00:02;;;;;;;28.50;25.10;;;;;;;;;;4959241;28;20193;-86
2023/01/25 02:02:28;;;;;;;30.43;25.97;;;;;;;;;;4952191;28;20210;-86
2023/01/25 02:04:57;;;;;;;31.43;26.20;;;;;;;;;;4937517;28;20187;-86
2023/01/25 02:07:33;;;;;;;30.43;25.73;;;;;;;;;;4954087;28;20187;-85
2023/01/25 02:10:00;;;;;;;33.77;26.27;;;;;;;;;;4963066;28;20176;-85
2023/01/25 02:12:27;;;;;;;30.37;26.07;;;;;;;;;;4953283;28;20219;-86
2023/01/25 02:14:55;;;;;;;31.40;27.07;;;;;;;;;;4934827;28;20270;-85
2023/01/25 02:17:32;;;;;;;36.08;32.40;;;;;;;;;;4947379;28;20419;-86
2023/01/25 02:20:00;;;;;;;35.78;32.25;;;;;;;;;;4951820;28;20408;-86
2023/01/25 02:22:31;;;;;;;35.55;32.05;;;;;;;;;;4948607;28;20415;-85
2023/01/25 02:25:04;;;;;;;30.17;26.57;;;;;;;;;;4953105;28;20202;-85
2023/01/25 02:27:30;;;;;;;32.07;25.97;;;;;;;;;;4951731;28;20242;-85
2023/01/25 02:29:57;;;;;;;35.13;31.63;;;;;;;;;;4931470;29;20423;-85
2023/01/25 02:32:26;;;;;;;36.35;32.80;;;;;;;;;;4953769;28;20430;-86
2023/01/25 02:34:52;;;;;;;36.50;32.90;;;;;;;;;;4949727;28;20452;-83
2023/01/25 02:37:18;;;;;;;33.67;30.27;;;;;;;;;;4950411;28;20414;-83
2023/01/25 02:39:44;;;;;;;36.57;32.97;;;;;;;;;;4950268;28;20443;-83
2023/01/25 02:42:13;;;;;;;31.63;28.23;;;;;;;;;;4949266;28;20180;-82
2023/01/25 02:44:40;;;;;;;32.20;28.43;;;;;;;;;;4950600;28;20194;-83
2023/01/25 02:47:06;;;;;;;35.15;31.45;;;;;;;;;;4932326;28;20431;-82
2023/01/25 02:49:48;;;;;;;36.70;33.00;;;;;;;;;;4950777;28;20413;-83
2023/01/25 02:52:14;;;;;;;36.63;33.03;;;;;;;;;;4950348;28;20411;-83
2023/01/25 02:54:40;;;;;;;38.40;34.60;;;;;;;;;;4935547;28;20504;-83
2023/01/25 02:57:09;;;;;;;37.30;33.60;;;;;;;;;;4948412;28;20414;-83
2023/01/25 02:59:35;;;;;;;36.92;33.42;;;;;;;;;;4948538;28;20404;-83
2023/01/25 03:02:01;;;;;;;30.70;27.40;;;;;;;;;;4949164;28;20175;-83
2023/01/25 03:04:27;;;;;;;34.10;27.83;;;;;;;;;;4952197;28;20230;-83
2023/01/25 03:06:56;;;;;;;30.10;26.83;;;;;;;;;;4936385;28;20175;-84
2023/01/25 03:09:22;;;;;;;34.13;27.90;;;;;;;;;;4949881;28;20176;-83
2023/01/25 03:11:48;;;;;;;32.73;27.17;;;;;;;;;;4932389;28;20179;-84
2023/01/25 03:14:16;;;;;;;31.43;27.73;;;;;;;;;;4934756;28;20214;-83
2023/01/25 03:16:42;;;;;;;30.20;26.50;;;;;;;;;;4953245;28;20182;-83
2023/01/25 03:19:09;;;;;;;31.87;26.60;;;;;;;;;;4951467;28;20171;-84
2023/01/25 03:21:35;;;;;;;29.47;26.27;;;;;;;;;;4952284;28;20175;-83
2023/01/25 03:24:04;;;;;;;31.10;26.80;;;;;;;;;;4932156;28;20183;-83
2023/01/25 03:26:30;;;;;;;31.20;27.13;;;;;;;;;;4949848;28;20185;-83
2023/01/25 03:28:56;;;;;;;31.43;27.07;;;;;;;;;;4947291;28;20182;-83
2023/01/25 03:31:24;;;;;;;37.50;33.78;;;;;;;;;;4948418;28;20422;-83
2023/01/25 03:33:50;;;;;;;32.13;28.70;;;;;;;;;;4934022;28;20258;-83
2023/01/25 03:36:16;;;;;;;31.47;27.53;;;;;;;;;;4949643;28;20205;-83
2023/01/25 03:38:42;;;;;;;32.90;28.53;;;;;;;;;;4947961;28;20175;-84
2023/01/25 03:41:11;;;;;;;38.55;34.75;;;;;;;;;;4949154;28;20416;-83
2023/01/25 03:43:37;;;;;;;38.85;35.05;;;;;;;;;;4948494;28;20444;-83
2023/01/25 03:46:03;;;;;;;38.67;34.88;;;;;;;;;;4933149;28;20407;-85
2023/01/25 03:48:29;;;;;;;39.70;35.80;;;;;;;;;;4948913;28;20408;-85
2023/01/25 03:50:58;;;;;;;38.25;34.65;;;;;;;;;;4945702;28;20462;-85
2023/01/25 03:53:27;;;;;;;33.17;29.17;;;;;;;;;;4951905;28;20202;-85
2023/01/25 03:55:56;;;;;;;32.80;28.37;;;;;;;;;;4949536;29;20176;-85
2023/01/25 03:58:22;;;;;;;41.05;36.95;;;;;;;;;;4952776;28;20485;-85
2023/01/25 04:00:49;;;;;;;39.38;35.55;;;;;;;;;;4949498;28;20459;-85
2023/01/25 04:03:16;;;;;;;32.63;29.07;;;;;;;;;;4927992;29;20235;-86
2023/01/25 04:05:43;;;;;;;33.13;28.13;;;;;;;;;;4951332;28;20195;-85
2023/01/25 04:08:09;;;;;;;34.27;29.67;;;;;;;;;;4932752;28;20194;-85
2023/01/25 04:10:35;;;;;;;33.60;28.67;;;;;;;;;;4935252;28;20281;-85
2023/01/25 04:13:04;;;;;;;34.63;28.83;;;;;;;;;;4950302;28;20206;-85
2023/01/25 04:15:30;;;;;;;36.20;29.27;;;;;;;;;;4952702;28;20281;-86
2023/01/25 04:17:56;;;;;;;35.20;28.73;;;;;;;;;;4930687;28;20238;-86
2023/01/25 04:20:22;;;;;;;36.67;30.27;;;;;;;;;;4952491;28;20187;-85
2023/01/25 04:22:50;;;;;;;37.70;30.87;;;;;;;;;;4947078;28;20185;-85
2023/01/25 04:25:16;;;;;;;37.13;30.73;;;;;;;;;;4947516;28;20190;-85
2023/01/25 04:27:42;;;;;;;35.20;29.57;;;;;;;;;;4947695;28;20221;-86
2023/01/25 04:30:09;;;;;;;35.47;29.17;;;;;;;;;;4933228;28;20190;-85
2023/01/25 04:32:35;;;;;;;34.67;29.10;;;;;;;;;;4934080;28;20256;-86
2023/01/25 04:35:01;;;;;;;34.40;28.93;;;;;;;;;;4950673;28;20226;-86
2023/01/25 04:37:27;;;;;;;37.27;29.57;;;;;;;;;;4951947;28;20183;-85
2023/01/25 04:39:53;;;;;;;37.07;30.03;;;;;;;;;;4947744;28;20190;-85
2023/01/25 04:42:22;;;;;;;37.03;30.87;;;;;;;;;;4930500;28;20179;-85
2023/01/25 04:44:48;;;;;;;36.97;29.23;;;;;;;;;;4954150;28;20186;-86
2023/01/25 04:47:14;;;;;;;35.83;30.03;;;;;;;;;;4948375;28;20246;-86
2023/01/25 04:49:40;;;;;;;36.83;30.87;;;;;;;;;;4949047;28;20178;-85
2023/01/25 04:52:06;;;;;;;35.67;29.70;;;;;;;;;;4932929;28;20318;-85
2023/01/25 04:54:32;;;;;;;37.60;30.40;;;;;;;;;;4946770;28;20184;-85
2023/01/25 04:56:58;;;;;;;36.43;29.60;;;;;;;;;;4944393;28;20187;-85
2023/01/25 04:59:24;;;;;;;39.27;31.13;;;;;;;;;;4952671;28;20179;-86
2023/01/25 05:01:53;;;;;;;35.70;30.30;;;;;;;;;;4951950;28;20183;-86
2023/01/25 05:04:19;;;;;;;40.53;31.97;;;;;;;;;;4951759;28;20187;-86
2023/01/25 05:06:45;;;;;;;38.37;31.67;;;;;;;;;;4947658;28;20178;-85
2023/01/25 05:09:11;;;;;;;41.53;32.17;;;;;;;;;;4945915;28;20184;-85
2023/01/25 05:11:39;;;;;;;38.17;31.47;;;;;;;;;;4949225;28;20194;-85
2023/01/25 05:14:05;;;;;;;42.83;33.47;;;;;;;;;;4954707;28;20299;-85
2023/01/25 05:16:31;;;;;;;41.33;32.63;;;;;;;;;;4949148;28;20185;-86
2023/01/25 05:18:57;;;;;;;46.45;41.55;;;;;;;;;;4945929;28;20435;-85
2023/01/25 05:24:13;;;;;;;41.27;33.57;;;;;;;;;;4971402;28;20221;-85
2023/01/25 05:29:24;;;;;;;44.47;34.43;;;;;;;;;;4967696;28;20190;-85
2023/01/25 05:31:50;;;;;;;40.80;32.93;;;;;;;;;;4962383;28;20179;-85
2023/01/25 05:34:16;;;;;;;45.60;35.07;;;;;;;;;;4931516;28;20235;-85
2023/01/25 05:36:42;;;;;;;44.17;34.87;;;;;;;;;;4934572;29;20282;-86
2023/01/25 05:39:10;;;;;;;42.67;33.53;;;;;;;;;;4933608;28;20279;-85
2023/01/25 05:41:36;;;;;;;46.20;33.90;;;;;;;;;;4953844;28;20190;-86
2023/01/25 05:44:02;;;;;;;44.50;34.80;;;;;;;;;;4947794;28;20182;-85
2023/01/25 05:46:31;;;;;;;44.30;34.27;;;;;;;;;;4954245;28;20199;-85
2023/01/25 05:48:57;;;;;;;46.90;35.23;;;;;;;;;;4960134;28;20214;-85
2023/01/25 05:51:23;;;;;;;45.40;33.30;;;;;;;;;;4943269;28;20195;-83
2023/01/25 05:53:49;;;;;;;48.47;36.47;;;;;;;;;;4953727;28;20222;-82
2023/01/25 05:56:17;;;;;;;47.37;35.60;;;;;;;;;;4937641;28;20195;-83
2023/01/25 05:58:43;;;;;;;48.77;35.57;;;;;;;;;;4935120;28;20213;-82
2023/01/25 06:01:10;;;;;;;48.53;35.73;;;;;;;;;;4952558;28;20271;-82
2023/01/25 06:03:36;;;;;;;50.30;37.83;;;;;;;;;;4954641;28;20182;-82
2023/01/25 06:06:05;;;;;;;51.80;37.40;;;;;;;;;;4954143;28;20187;-86
2023/01/25 06:08:31;;;;;;;46.13;35.30;;;;;;;;;;4956840;28;20214;-88
2023/01/25 06:10:58;;;;;;;49.17;37.63;;;;;;;;;;4955577;28;20215;-88
2023/01/25 06:13:28;;;;;;;48.43;36.03;;;;;;;;;;4934557;28;20328;-89
2023/01/25 06:15:55;;;;;;;48.40;36.03;;;;;;;;;;4954470;28;20186;-87
2023/01/25 06:18:24;;;;;;;46.87;36.00;;;;;;;;;;4953088;28;20193;-88
2023/01/25 06:20:50;;;;;;;45.60;34.80;;;;;;;;;;4956460;28;20210;-86
2023/01/25 06:23:16;;;;;;;44.27;34.97;;;;;;;;;;4953492;28;20282;-88
2023/01/25 06:25:42;;;;;;;45.73;34.43;;;;;;;;;;4947537;28;20229;-87
2023/01/25 06:28:11;;;;;;;44.37;34.37;;;;;;;;;;4960592;28;20187;-87
2023/01/25 06:30:37;;;;;;;44.43;34.37;;;;;;;;;;4961265;28;20187;-89
2023/01/25 06:33:08;;;;;;;46.47;35.57;;;;;;;;;;4954654;28;20471;-89
2023/01/25 06:35:34;;;;;;;48.13;35.67;;;;;;;;;;4952201;28;20302;-87
2023/01/25 06:38:03;;;;;;;47.07;35.23;;;;;;;;;;4948473;28;20170;-88
2023/01/25 06:40:50;;;;;;;47.17;35.30;;;;;;;;;;4954115;28;20258;-89
2023/01/25 06:43:15;;;;;;;48.93;37.10;;;;;;;;;;4974355;28;20191;-88
2023/01/25 06:45:44;;;;;;;52.00;37.10;;;;;;;;;;4960791;28;20199;-88
2023/01/25 06:48:13;;;;;;;51.43;37.60;;;;;;;;;;4968354;28;20183;-89
2023/01/25 06:50:42;;;;;;;49.70;35.90;;;;;;;;;;4954998;28;20178;-88
2023/01/25 06:53:11;;;;;;;49.27;37.43;;;;;;;;;;4946898;28;20230;-86
2023/01/25 06:55:37;;;;;;;49.30;37.30;;;;;;;;;;4961638;28;20176;-87
2023/01/25 06:58:06;;;;;;;49.73;37.00;;;;;;;;;;4950237;28;20199;-87
2023/01/25 07:00:32;;;;;;;47.77;35.50;;;;;;;;;;4949021;28;20210;-86
2023/01/25 07:02:58;;;;;;;46.40;35.87;;;;;;;;;;4954154;28;20305;-86
2023/01/25 07:05:45;;;;;;;44.33;34.73;;;;;;;;;;4936630;28;20199;-86
2023/01/25 07:08:13;;;;;;;49.47;36.40;;;;;;;;;;4979451;28;20183;-88
2023/01/25 07:10:45;;;;;;;48.20;37.03;;;;;;;;;;4952041;28;20194;-88
2023/01/25 07:13:16;;;;;;;49.93;35.63;;;;;;;;;;4933226;28;20216;-87
2023/01/25 07:15:44;;;;;;;47.93;36.27;;;;;;;;;;4935362;28;20179;-88
2023/01/25 07:18:12;;;;;;;50.07;36.40;;;;;;;;;;4951695;29;20274;-87
2023/01/25 07:20:40;;;;;;;50.60;37.63;;;;;;;;;;4951724;28;20225;-88
2023/01/25 07:23:10;;;;;;;48.07;36.70;;;;;;;;;;4951207;28;20178;-89
2023/01/25 07:25:36;;;;;;;50.63;36.57;;;;;;;;;;4951354;28;20178;-88
2023/01/25 07:28:02;;;;;;;48.93;36.10;;;;;;;;;;4951387;28;20179;-87
2023/01/25 07:30:28;;;;;;;49.10;37.23;;;;;;;;;;4949147;28;20184;-87
2023/01/25 07:32:58;;;;;;;52.13;37.40;;;;;;;;;;4950284;28;20288;-87
2023/01/25 07:35:24;;;;;;;49.30;37.10;;;;;;;;;;4951467;28;20238;-86
2023/01/25 07:37:50;;;;;;;47.97;36.50;;;;;;;;;;4949570;28;20239;-88
2023/01/25 07:40:19;;;;;;;49.47;35.53;;;;;;;;;;4952138;28;20210;-86
2023/01/25 07:42:48;;;;;;;49.87;37.37;;;;;;;;;;4949342;28;20182;-87
2023/01/25 07:45:29;;;;;;;52.03;36.20;;;;;;;;;;4945382;28;20199;-86
2023/01/25 07:48:00;;;;;;;48.23;36.90;;;;;;;;;;4940906;28;20262;-88
2023/01/25 07:50:36;;;;;;;49.80;37.17;;;;;;;;;;4940962;29;20184;-88
2023/01/25 07:53:10;;;;;;;49.80;37.87;;;;;;;;;;4941182;29;20226;-87
2023/01/25 07:55:39;;;;;;;49.37;36.40;;;;;;;;;;4924930;29;20270;-87
2023/01/25 07:58:07;;;;;;;49.87;37.10;;;;;;;;;;4940274;29;20269;-87
2023/01/25 08:00:39;;;;;;;48.30;36.73;;;;;;;;;;4939691;29;20179;-86
2023/01/25 08:03:06;;;;;;;47.13;35.70;;;;;;;;;;4957300;29;20271;-88
2023/01/25 08:05:32;;;;;;;47.33;36.43;;;;;;;;;;4939482;29;20195;-86
2023/01/25 08:08:00;;;;;;;49.40;37.40;;;;;;;;;;4940588;29;20237;-87
2023/01/25 08:10:43;;;;;;;48.03;36.07;;;;;;;;;;4924373;29;20184;-86
2023/01/25 08:13:13;;;;;;;49.77;36.77;;;;;;;;;;4924115;29;20226;-87
2023/01/25 08:15:39;;;;;;;51.87;37.87;;;;;;;;;;4939715;29;20183;-86
2023/01/25 08:18:05;;;;;;;49.27;37.13;;;;;;;;;;4939812;29;20206;-87
2023/01/25 08:20:31;;;;;;;48.33;36.60;;;;;;;;;;4940102;29;20183;-88
2023/01/25 08:22:59;;;;;;;47.93;35.67;;;;;;;;;;4939457;29;20192;-87
2023/01/25 08:25:25;;;;;;;48.93;37.47;;;;;;;;;;4940153;29;20241;-85
2023/01/25 08:27:56;;;;;;;51.50;37.57;;;;;;;;;;4939993;29;20270;-85
2023/01/25 08:30:22;;;;;;;53.43;38.03;;;;;;;;;;4939596;29;20179;-85
2023/01/25 08:32:48;;;;;;;50.87;37.97;;;;;;;;;;4923879;29;20219;-84
2023/01/25 08:35:19;;;;;;;51.63;37.77;;;;;;;;;;4938626;29;20231;-86
2023/01/25 08:37:45;;;;;;;75.17;55.47;;;;;;;;;;4923784;29;20195;-85
2023/01/25 08:40:16;;;;;;;62.93;48.07;;;;;;;;;;4938601;29;20175;-85
2023/01/25 08:42:43;;;;;;;58.07;44.10;;;;;;;;;;4939375;29;20195;-84
2023/01/25 08:45:50;;;;;;;53.97;38.07;;;;;;;;;;4938772;29;20207;-89
2023/01/25 08:48:18;;;;;;;55.45;46.85;;;;;;;;;;4954371;29;20454;-86
2023/01/25 08:50:51;;;;;;;52.67;40.07;;;;;;;;;;4923413;29;20195;-88
2023/01/25 08:53:37;;;;;;;56.03;43.70;;;;;;;;;;4938841;29;20443;-89
2023/01/25 08:56:07;;;;;;;54.93;40.20;;;;;;;;;;4955167;28;20176;-87
2023/01/25 08:58:33;;;;;;;53.10;39.13;;;;;;;;;;4938765;29;20182;-88
2023/01/25 09:01:07;;;;;;;53.50;38.87;;;;;;;;;;4924733;29;20172;-85
2023/01/25 09:03:38;;;;;;;53.10;37.00;;;;;;;;;;4942219;29;20179;-85
2023/01/25 09:06:04;;;;;;;48.90;36.30;;;;;;;;;;4942741;29;20179;-84
2023/01/25 09:08:30;;;;;;;48.23;35.53;;;;;;;;;;4942438;29;20218;-84
2023/01/25 09:11:01;;;;;;;51.77;37.80;;;;;;;;;;4942127;29;20179;-85
2023/01/25 09:13:27;;;;;;;49.03;36.30;;;;;;;;;;4942201;29;20294;-85
2023/01/25 09:15:58;;;;;;;49.92;44.47;;;;;;;;;;4942067;29;20419;-85
2023/01/25 09:18:24;;;;;;;51.92;39.63;;;;;;;;;;4942138;29;20415;-85
2023/01/25 09:20:50;;;;;;;52.00;43.30;;;;;;;;;;4942116;29;20491;-85
2023/01/25 09:23:21;;;;;;;54.53;47.72;;;;;;;;;;4941225;29;20451;-84
2023/01/25 09:25:47;;;;;;;53.42;46.28;;;;;;;;;;4941704;29;20419;-84
2023/01/25 09:28:19;;;;;;;52.25;43.88;;;;;;;;;;4942500;29;20426;-84
2023/01/25 09:30:45;;;;;;;53.30;47.50;;;;;;;;;;4926146;29;20498;-85
2023/01/25 09:33:13;;;;;;;51.13;38.40;;;;;;;;;;4941955;29;20215;-85
2023/01/25 09:35:47;;;;;;;52.63;38.30;;;;;;;;;;4941722;29;20240;-85
2023/01/25 09:38:15;;;;;;;53.47;37.73;;;;;;;;;;4942099;29;20191;-84
2023/01/25 09:40:44;;;;;;;49.90;37.50;;;;;;;;;;4927161;29;20187;-87
2023/01/25 09:43:15;;;;;;;54.38;48.00;;;;;;;;;;4941376;29;20431;-86
2023/01/25 09:45:41;;;;;;;53.65;47.85;;;;;;;;;;4940636;29;20424;-85
2023/01/25 09:48:15;;;;;;;53.70;47.75;;;;;;;;;;4941212;29;20416;-85
2023/01/25 09:51:17;;;;;;;55.33;47.05;;;;;;;;;;4941152;29;20463;-87
2023/01/25 09:53:50;;;;;;;55.40;47.78;;;;;;;;;;4920947;29;20524;-86
2023/01/25 09:56:26;;;;;;;54.92;48.35;;;;;;;;;;4938039;29;20412;-85
2023/01/25 09:59:15;;;;;;;55.65;49.38;;;;;;;;;;4940896;29;20412;-84
2023/01/25 10:01:48;;;;;;;52.33;39.63;;;;;;;;;;4941390;29;20178;-84
2023/01/25 10:04:17;;;;;;;52.63;38.90;;;;;;;;;;4941794;29;20190;-86
2023/01/25 10:06:46;;;;;;;55.75;48.95;;;;;;;;;;4940444;29;20416;-87
2023/01/25 10:09:20;;;;;;;56.75;49.60;;;;;;;;;;4924921;29;20434;-86
2023/01/25 10:11:46;;;;;;;58.97;50.38;;;;;;;;;;4939949;29;20419;-87
2023/01/25 10:14:20;;;;;;;56.55;48.72;;;;;;;;;;4940370;29;20431;-87
2023/01/25 10:16:46;;;;;;;59.47;50.00;;;;;;;;;;4940771;29;20530;-85
2023/01/25 10:19:17;;;;;;;56.00;49.78;;;;;;;;;;4939864;29;20415;-85
2023/01/25 10:21:54;;;;;;;56.92;49.47;;;;;;;;;;4940200;29;20498;-83
2023/01/25 10:24:24;;;;;;;56.75;49.30;;;;;;;;;;4939897;29;20435;-85
2023/01/25 10:26:55;;;;;;;54.13;40.97;;;;;;;;;;4941174;29;20184;-84
2023/01/25 10:29:22;;;;;;;55.60;39.17;;;;;;;;;;4940705;29;20251;-84
2023/01/25 10:31:52;;;;;;;55.73;38.30;;;;;;;;;;4940702;29;20203;-84
2023/01/25 10:34:38;;;;;;;57.72;48.60;;;;;;;;;;4939260;29;20454;-83
2023/01/25 10:37:15;;;;;;;56.83;46.55;;;;;;;;;;4942055;29;20428;-84
2023/01/25 10:39:53;;;;;;;57.80;48.95;;;;;;;;;;4940105;29;20506;-84
2023/01/25 10:42:24;;;;;;;57.20;47.83;;;;;;;;;;4940112;29;20419;-84
2023/01/25 10:44:50;;;;;;;60.45;52.10;;;;;;;;;;4939838;29;20404;-88
2023/01/25 10:47:38;;;;;;;59.65;50.65;;;;;;;;;;4939846;29;20404;-87
2023/01/25 10:50:04;;;;;;;59.10;50.30;;;;;;;;;;4939353;29;20459;-85
2023/01/25 10:52:36;;;;;;;57.13;40.93;;;;;;;;;;4940000;29;20190;-86
2023/01/25 10:55:05;;;;;;;56.88;40.70;;;;;;;;;;4939993;29;20424;-86
2023/01/25 10:57:32;;;;;;;59.77;49.87;;;;;;;;;;4939274;29;20495;-85
2023/01/25 11:00:04;;;;;;;60.40;50.92;;;;;;;;;;4938682;29;20404;-86
2023/01/25 11:02:36;;;;;;;60.85;51.30;;;;;;;;;;4939139;29;20423;-86
2023/01/25 11:05:38;;;;;;;57.60;49.85;;;;;;;;;;4938784;29;20414;-85
2023/01/25 11:08:23;;;;;;;57.03;49.15;;;;;;;;;;4949809;28;20417;-87
2023/01/25 11:10:49;;;;;;;55.85;48.13;;;;;;;;;;4958336;28;20422;-85
2023/01/25 11:13:18;;;;;;;56.90;48.50;;;;;;;;;;4958165;28;20482;-85
2023/01/25 11:15:54;;;;;;;58.05;48.25;;;;;;;;;;4958171;28;20417;-87
2023/01/25 11:18:28;;;;;;;58.08;49.60;;;;;;;;;;4958168;28;20410;-85
2023/01/25 11:21:18;;;;;;;58.88;49.63;;;;;;;;;;4958391;28;20418;-86
2023/01/25 11:23:57;;;;;;;59.75;51.08;;;;;;;;;;4956362;28;20494;-87
2023/01/25 11:26:28;;;;;;;58.08;48.90;;;;;;;;;;4958222;28;20416;-86
2023/01/25 11:29:06;;;;;;;58.00;49.42;;;;;;;;;;4957805;28;20418;-86
2023/01/25 11:31:32;;;;;;;58.38;48.65;;;;;;;;;;4957611;28;20398;-86
2023/01/25 11:34:01;;;;;;;58.03;49.40;;;;;;;;;;4957974;28;20504;-86
2023/01/25 11:36:35;;;;;;;57.08;49.25;;;;;;;;;;4948735;28;20436;-84
2023/01/25 11:39:17;;;;;;;83.70;51.97;;;;;;;;;;4964488;28;20424;-86
2023/01/25 11:41:55;;;;;;;60.50;49.38;;;;;;;;;;4947026;28;20497;-85
2023/01/25 11:44:25;;;;;;;60.10;51.33;;;;;;;;;;4963956;28;20430;-86
2023/01/25 11:47:22;;;;;;;;;;;;;;;;;;;;;
2023/01/25 11:49:57;;;;;;;66.63;54.45;;;;;;;;;;4974222;28;20410;-87
2023/01/25 11:52:32;;;;;;;68.78;53.85;;;;;;;;;;4958302;28;20571;-87
2023/01/25 11:55:23;;;;;;;68.22;55.70;;;;;;;;;;4957130;28;20424;-86
2023/01/25 11:57:59;;;;;;;68.55;56.55;;;;;;;;;;4957582;28;20418;-86
2023/01/25 12:00:45;;;;;;;68.72;56.42;;;;;;;;;;4953745;28;20411;-86
2023/01/25 12:03:30;;;;;;;67.03;55.58;;;;;;;;;;4938360;29;20420;-86
2023/01/25 12:06:05;;;;;;;68.72;56.47;;;;;;;;;;4938212;29;20415;-86
2023/01/25 12:08:31;;;;;;;70.95;55.75;;;;;;;;;;4938717;29;20411;-86
2023/01/25 12:11:17;;;;;;;70.40;57.13;;;;;;;;;;4938322;29;20418;-86
2023/01/25 12:13:46;;;;;;;70.47;57.40;;;;;;;;;;4949322;28;20481;-88
2023/01/25 12:16:17;;;;;;;69.80;57.05;;;;;;;;;;4956631;28;20422;-87
2023/01/25 12:19:02;;;;;;;68.78;57.53;;;;;;;;;;4957231;28;20417;-86
2023/01/25 12:21:33;;;;;;;73.75;58.63;;;;;;;;;;4957318;28;20406;-86
2023/01/25 12:24:05;;;;;;;72.27;58.63;;;;;;;;;;4957342;28;20417;-86
2023/01/25 12:26:48;;;;;;;75.80;59.30;;;;;;;;;;4957415;28;20436;-85
2023/01/25 12:29:24;;;;;;;71.20;57.10;;;;;;;;;;4957220;28;20420;-86
2023/01/25 12:31:58;;;;;;;71.82;57.92;;;;;;;;;;4956969;28;20417;-87
2023/01/25 12:34:35;;;;;;;72.45;56.80;;;;;;;;;;4958418;28;20471;-86
2023/01/25 12:37:05;;;;;;;72.20;57.78;;;;;;;;;;4960810;28;20460;-85
2023/01/25 12:39:39;;;;;;;74.25;57.17;;;;;;;;;;4961048;28;20437;-86
2023/01/25 12:42:24;;;;;;;70.53;56.50;;;;;;;;;;4960875;28;20414;-86
2023/01/25 12:45:09;;;;;;;69.35;57.00;;;;;;;;;;4959554;28;20425;-86
2023/01/25 12:47:38;;;;;;;72.90;57.33;;;;;;;;;;4960424;28;20427;-86
2023/01/25 12:50:23;;;;;;;71.70;57.53;;;;;;;;;;4960481;28;20418;-86
2023/01/25 12:52:54;;;;;;;72.75;56.35;;;;;;;;;;4954357;29;20439;-86
2023/01/25 12:55:20;;;;;;;67.73;44.63;;;;;;;;;;4942144;29;20203;-87
2023/01/25 12:57:52;;;;;;;74.90;57.43;;;;;;;;;;4941166;29;20416;-87
2023/01/25 13:00:18;;;;;;;77.45;58.80;;;;;;;;;;4941148;29;20427;-86
2023/01/25 13:02:53;;;;;;;76.72;59.08;;;;;;;;;;4941006;29;20499;-86
2023/01/25 13:05:29;;;;;;;79.03;59.93;;;;;;;;;;4940621;29;25085;-85
2023/01/25 13:08:02;;;;;;;78.83;60.50;;;;;;;;;;4940722;29;20482;-85
2023/01/25 13:10:38;;;;;;;74.32;57.25;;;;;;;;;;4941682;28;20562;-86
2023/01/25 13:13:19;;;;;;;73.07;56.88;;;;;;;;;;4941008;29;20522;-86
2023/01/25 13:15:52;;;;;;;70.00;47.27;;;;;;;;;;4941887;29;20179;-86
2023/01/25 13:18:24;;;;;;;78.07;57.90;;;;;;;;;;4941024;29;20420;-87
2023/01/25 13:20:52;;;;;;;73.97;48.03;;;;;;;;;;4940374;29;20171;-85
2023/01/25 13:23:27;;;;;;;79.55;56.53;;;;;;;;;;4941281;29;20424;-85
2023/01/25 13:26:13;;;;;;;75.27;48.17;;;;;;;;;;4941692;29;20175;-86
2023/01/25 13:28:45;;;;;;;80.57;59.15;;;;;;;;;;4946440;28;20412;-90
2023/01/25 13:31:32;;;;;;;84.30;59.83;;;;;;;;;;4956543;28;20487;-87
2023/01/25 13:33:59;;;;;;;85.38;62.85;;;;;;;;;;4893289;29;20432;-86
2023/01/25 13:36:38;;;;;;;83.80;62.30;;;;;;;;;;4956687;28;20459;-86
2023/01/25 13:39:30;;;;;;;81.90;60.20;;;;;;;;;;4956903;28;20447;-86
2023/01/25 13:42:19;;;;;;;81.03;53.83;;;;;;;;;;4930978;29;20485;-85
2023/01/25 13:44:51;;;;;;;81.50;51.05;;;;;;;;;;4957709;29;20416;-86
2023/01/25 13:47:20;;;;;;;79.43;47.70;;;;;;;;;;4956752;28;20188;-85
2023/01/25 13:49:46;;;;;;;76.97;47.27;;;;;;;;;;4957326;28;20199;-87
2023/01/25 13:52:15;;;;;;;87.53;62.40;;;;;;;;;;4956542;28;20491;-85
2023/01/25 13:54:45;;;;;;;84.30;54.03;;;;;;;;;;4956764;28;20538;-86
2023/01/25 13:57:14;;;;;;;84.47;51.27;;;;;;;;;;4957357;28;20179;-85
2023/01/25 13:59:40;;;;;;;93.60;65.07;;;;;;;;;;4955949;28;20439;-85
2023/01/25 14:02:18;;;;;;;92.05;66.30;;;;;;;;;;4956171;28;20438;-85
2023/01/25 14:04:53;;;;;;;89.40;65.63;;;;;;;;;;4955759;28;20435;-86
2023/01/25 14:07:23;;;;;;;90.47;65.53;;;;;;;;;;4956490;28;20481;-85
2023/01/25 14:09:50;;;;;;;91.47;66.75;;;;;;;;;;4959199;28;20430;-85
2023/01/25 14:12:34;;;;;;;89.72;65.13;;;;;;;;;;4959001;28;20437;-86
2023/01/25 14:15:20;;;;;;;87.72;64.43;;;;;;;;;;4958834;28;20422;-85
2023/01/25 14:18:02;;;;;;;90.50;66.43;;;;;;;;;;4958486;28;20403;-86
2023/01/25 14:20:34;;;;;;;87.40;64.60;;;;;;;;;;4958749;28;20410;-85
2023/01/25 14:23:00;;;;;;;94.82;68.88;;;;;;;;;;4958823;28;20422;-85
2023/01/25 14:25:26;;;;;;;95.13;66.07;;;;;;;;;;4959210;28;20421;-85
2023/01/25 14:27:53;;;;;;;83.93;52.90;;;;;;;;;;4959548;28;20213;-85
2023/01/25 14:30:22;;;;;;;73.53;46.77;;;;;;;;;;4959709;28;20217;-85
2023/01/25 14:32:55;;;;;;;80.45;59.30;;;;;;;;;;4958875;28;20529;-85
2023/01/25 14:35:48;;;;;;;73.73;49.43;;;;;;;;;;4959447;28;20238;-85
2023/01/25 14:38:28;;;;;;;78.72;56.00;;;;;;;;;;4957908;28;20497;-85
2023/01/25 14:41:02;;;;;;;80.88;56.45;;;;;;;;;;4959030;28;20410;-85
2023/01/25 14:43:30;;;;;;;79.67;49.03;;;;;;;;;;4959313;28;20178;-85